sensor_id;sensor_type;location;lat;lon;timestamp;P1;durP1;ratioP1;P2;durP2;ratioP2
58470;SDS011;44258;51.288;12.068;2023-06-19T00:02:06;11.45;;;7.18;;
58470;SDS011;44258;51.288;12.068;2023-06-19T00:04:53;12.18;;;7.10;;
58470;SDS011;44258;51.288;12.068;2023-06-19T00:07:40;12.70;;;7.88;;
58470;SDS011;44258;51.288;12.068;2023-06-19T00:10:28;15.55;;;7.53;;
58470;SDS011;44258;51.288;12.068;2023-06-19T00:13:16;12.48;;;7.63;;
58470;SDS011;44258;51.288;12.068;2023-06-19T00:16:04;12.82;;;7.60;;
58470;SDS011;44258;51.288;12.068;2023-06-19T00:21:41;14.05;;;7.75;;
58470;SDS011;44258;51.288;12.068;2023-06-19T00:24:28;11.32;;;7.80;;
58470;SDS011;44258;51.288;12.068;2023-06-19T00:30:04;12.57;;;7.63;;
58470;SDS011;44258;51.288;12.068;2023-06-19T00:32:52;14.15;;;7.75;;
58470;SDS011;44258;51.288;12.068;2023-06-19T00:35:39;12.05;;;7.43;;
58470;SDS011;44258;51.288;12.068;2023-06-19T00:38:27;12.30;;;7.32;;
58470;SDS011;44258;51.288;12.068;2023-06-19T00:44:01;13.13;;;7.85;;
58470;SDS011;44258;51.288;12.068;2023-06-19T00:49:40;13.30;;;8.32;;
58470;SDS011;44258;51.288;12.068;2023-06-19T00:52:27;13.95;;;7.82;;
58470;SDS011;44258;51.288;12.068;2023-06-19T00:58:01;14.68;;;7.80;;
58470;SDS011;44258;51.288;12.068;2023-06-19T01:00:50;13.98;;;8.48;;
58470;SDS011;44258;51.288;12.068;2023-06-19T01:03:41;12.90;;;8.00;;
58470;SDS011;44258;51.288;12.068;2023-06-19T01:06:37;12.68;;;7.63;;
58470;SDS011;44258;51.288;12.068;2023-06-19T01:09:32;13.25;;;7.80;;
58470;SDS011;44258;51.288;12.068;2023-06-19T01:12:26;13.57;;;8.10;;
58470;SDS011;44258;51.288;12.068;2023-06-19T01:15:21;14.88;;;7.97;;
58470;SDS011;44258;51.288;12.068;2023-06-19T01:18:09;16.38;;;8.32;;
58470;SDS011;44258;51.288;12.068;2023-06-19T01:21:09;12.88;;;8.00;;
58470;SDS011;44258;51.288;12.068;2023-06-19T01:24:01;15.30;;;8.30;;
58470;SDS011;44258;51.288;12.068;2023-06-19T01:26:48;14.25;;;8.55;;
58470;SDS011;44258;51.288;12.068;2023-06-19T01:29:35;14.88;;;8.35;;
58470;SDS011;44258;51.288;12.068;2023-06-19T01:32:22;15.35;;;8.48;;
58470;SDS011;44258;51.288;12.068;2023-06-19T01:35:17;13.52;;;8.50;;
58470;SDS011;44258;51.288;12.068;2023-06-19T01:38:08;13.07;;;8.27;;
58470;SDS011;44258;51.288;12.068;2023-06-19T01:40:58;14.07;;;8.15;;
58470;SDS011;44258;51.288;12.068;2023-06-19T01:43:47;15.70;;;9.43;;
58470;SDS011;44258;51.288;12.068;2023-06-19T01:46:35;13.88;;;8.30;;
58470;SDS011;44258;51.288;12.068;2023-06-19T01:49:22;14.98;;;9.35;;
58470;SDS011;44258;51.288;12.068;2023-06-19T01:52:09;13.35;;;8.52;;
58470;SDS011;44258;51.288;12.068;2023-06-19T01:54:56;14.52;;;9.35;;
58470;SDS011;44258;51.288;12.068;2023-06-19T01:57:44;14.23;;;8.35;;
58470;SDS011;44258;51.288;12.068;2023-06-19T02:00:33;14.00;;;7.65;;
58470;SDS011;44258;51.288;12.068;2023-06-19T02:03:21;12.65;;;7.43;;
58470;SDS011;44258;51.288;12.068;2023-06-19T02:08:54;13.50;;;7.85;;
58470;SDS011;44258;51.288;12.068;2023-06-19T02:14:29;14.15;;;7.63;;
58470;SDS011;44258;51.288;12.068;2023-06-19T02:17:16;14.25;;;8.25;;
58470;SDS011;44258;51.288;12.068;2023-06-19T02:20:03;15.60;;;8.05;;
58470;SDS011;44258;51.288;12.068;2023-06-19T02:22:53;14.13;;;8.32;;
58470;SDS011;44258;51.288;12.068;2023-06-19T02:25:40;13.98;;;7.72;;
58470;SDS011;44258;51.288;12.068;2023-06-19T02:31:14;13.98;;;7.72;;
58470;SDS011;44258;51.288;12.068;2023-06-19T02:34:01;14.13;;;8.13;;
58470;SDS011;44258;51.288;12.068;2023-06-19T02:39:35;16.15;;;8.02;;
58470;SDS011;44258;51.288;12.068;2023-06-19T02:42:22;15.32;;;8.57;;
58470;SDS011;44258;51.288;12.068;2023-06-19T02:47:57;16.37;;;8.50;;
58470;SDS011;44258;51.288;12.068;2023-06-19T02:50:43;14.20;;;8.13;;
58470;SDS011;44258;51.288;12.068;2023-06-19T02:56:17;13.18;;;7.70;;
58470;SDS011;44258;51.288;12.068;2023-06-19T02:59:04;16.67;;;8.70;;
58470;SDS011;44258;51.288;12.068;2023-06-19T03:04:39;15.97;;;8.93;;
58470;SDS011;44258;51.288;12.068;2023-06-19T03:07:27;15.70;;;8.63;;
58470;SDS011;44258;51.288;12.068;2023-06-19T03:13:00;15.27;;;8.90;;
58470;SDS011;44258;51.288;12.068;2023-06-19T03:18:34;14.82;;;7.95;;
58470;SDS011;44258;51.288;12.068;2023-06-19T03:24:09;13.13;;;8.10;;
58470;SDS011;44258;51.288;12.068;2023-06-19T03:29:42;14.05;;;7.68;;
58470;SDS011;44258;51.288;12.068;2023-06-19T03:32:29;13.38;;;8.18;;
58470;SDS011;44258;51.288;12.068;2023-06-19T03:40:52;16.90;;;9.80;;
58470;SDS011;44258;51.288;12.068;2023-06-19T03:43:39;15.82;;;8.98;;
58470;SDS011;44258;51.288;12.068;2023-06-19T03:49:13;13.63;;;8.50;;
58470;SDS011;44258;51.288;12.068;2023-06-19T03:51:59;15.80;;;9.60;;
58470;SDS011;44258;51.288;12.068;2023-06-19T03:54:48;14.77;;;8.77;;
58470;SDS011;44258;51.288;12.068;2023-06-19T03:57:35;12.93;;;8.32;;
58470;SDS011;44258;51.288;12.068;2023-06-19T04:03:10;14.05;;;8.32;;
58470;SDS011;44258;51.288;12.068;2023-06-19T04:05:56;13.35;;;8.48;;
58470;SDS011;44258;51.288;12.068;2023-06-19T04:11:31;16.23;;;9.52;;
58470;SDS011;44258;51.288;12.068;2023-06-19T04:14:18;15.65;;;8.70;;
58470;SDS011;44258;51.288;12.068;2023-06-19T04:17:08;16.02;;;9.15;;
58470;SDS011;44258;51.288;12.068;2023-06-19T04:22:42;15.93;;;9.02;;
58470;SDS011;44258;51.288;12.068;2023-06-19T04:28:17;16.65;;;8.75;;
58470;SDS011;44258;51.288;12.068;2023-06-19T04:31:04;13.95;;;8.98;;
58470;SDS011;44258;51.288;12.068;2023-06-19T04:33:51;14.20;;;9.20;;
58470;SDS011;44258;51.288;12.068;2023-06-19T04:36:41;15.95;;;9.38;;
58470;SDS011;44258;51.288;12.068;2023-06-19T04:39:28;16.13;;;9.13;;
58470;SDS011;44258;51.288;12.068;2023-06-19T04:45:09;17.73;;;9.43;;
58470;SDS011;44258;51.288;12.068;2023-06-19T04:47:57;15.23;;;9.50;;
58470;SDS011;44258;51.288;12.068;2023-06-19T04:50:45;15.48;;;9.32;;
58470;SDS011;44258;51.288;12.068;2023-06-19T04:56:18;15.15;;;8.73;;
58470;SDS011;44258;51.288;12.068;2023-06-19T04:59:05;13.85;;;8.73;;
58470;SDS011;44258;51.288;12.068;2023-06-19T05:01:53;15.85;;;9.68;;
58470;SDS011;44258;51.288;12.068;2023-06-19T05:04:43;17.73;;;8.95;;
58470;SDS011;44258;51.288;12.068;2023-06-19T05:07:30;14.23;;;8.68;;
58470;SDS011;44258;51.288;12.068;2023-06-19T05:10:17;14.15;;;8.45;;
58470;SDS011;44258;51.288;12.068;2023-06-19T05:13:04;15.98;;;9.02;;
58470;SDS011;44258;51.288;12.068;2023-06-19T05:15:51;16.02;;;9.63;;
58470;SDS011;44258;51.288;12.068;2023-06-19T05:18:39;17.35;;;10.20;;
58470;SDS011;44258;51.288;12.068;2023-06-19T05:21:26;14.10;;;8.93;;
58470;SDS011;44258;51.288;12.068;2023-06-19T05:24:15;16.08;;;10.40;;
58470;SDS011;44258;51.288;12.068;2023-06-19T05:27:04;15.07;;;10.05;;
58470;SDS011;44258;51.288;12.068;2023-06-19T05:29:51;14.32;;;9.32;;
58470;SDS011;44258;51.288;12.068;2023-06-19T05:32:38;15.52;;;9.10;;
58470;SDS011;44258;51.288;12.068;2023-06-19T05:35:26;16.40;;;9.60;;
58470;SDS011;44258;51.288;12.068;2023-06-19T05:38:13;15.63;;;9.80;;
58470;SDS011;44258;51.288;12.068;2023-06-19T05:41:01;17.27;;;10.27;;
58470;SDS011;44258;51.288;12.068;2023-06-19T05:43:48;18.85;;;10.90;;
58470;SDS011;44258;51.288;12.068;2023-06-19T05:46:34;16.08;;;10.35;;
58470;SDS011;44258;51.288;12.068;2023-06-19T05:49:21;17.23;;;11.15;;
58470;SDS011;44258;51.288;12.068;2023-06-19T05:52:10;16.75;;;10.40;;
58470;SDS011;44258;51.288;12.068;2023-06-19T05:55:00;19.05;;;10.65;;
58470;SDS011;44258;51.288;12.068;2023-06-19T05:57:47;18.73;;;10.90;;
58470;SDS011;44258;51.288;12.068;2023-06-19T06:00:34;18.55;;;10.18;;
58470;SDS011;44258;51.288;12.068;2023-06-19T06:03:21;18.67;;;9.90;;
58470;SDS011;44258;51.288;12.068;2023-06-19T06:06:07;18.27;;;10.57;;
58470;SDS011;44258;51.288;12.068;2023-06-19T06:08:56;16.92;;;10.35;;
58470;SDS011;44258;51.288;12.068;2023-06-19T06:11:45;19.65;;;10.50;;
58470;SDS011;44258;51.288;12.068;2023-06-19T06:14:33;17.85;;;9.82;;
58470;SDS011;44258;51.288;12.068;2023-06-19T06:20:07;15.95;;;10.52;;
58470;SDS011;44258;51.288;12.068;2023-06-19T06:22:57;16.40;;;9.90;;
58470;SDS011;44258;51.288;12.068;2023-06-19T06:25:46;16.23;;;10.88;;
58470;SDS011;44258;51.288;12.068;2023-06-19T06:28:33;17.45;;;10.55;;
58470;SDS011;44258;51.288;12.068;2023-06-19T06:31:21;17.27;;;10.73;;
58470;SDS011;44258;51.288;12.068;2023-06-19T06:34:09;16.77;;;10.10;;
58470;SDS011;44258;51.288;12.068;2023-06-19T06:36:55;18.98;;;10.88;;
58470;SDS011;44258;51.288;12.068;2023-06-19T06:39:45;18.48;;;10.80;;
58470;SDS011;44258;51.288;12.068;2023-06-19T06:42:33;17.85;;;10.27;;
58470;SDS011;44258;51.288;12.068;2023-06-19T06:45:20;17.30;;;11.18;;
58470;SDS011;44258;51.288;12.068;2023-06-19T06:48:07;19.58;;;10.50;;
58470;SDS011;44258;51.288;12.068;2023-06-19T06:50:54;16.00;;;10.73;;
58470;SDS011;44258;51.288;12.068;2023-06-19T06:53:46;17.33;;;10.32;;
58470;SDS011;44258;51.288;12.068;2023-06-19T06:56:33;17.00;;;10.68;;
58470;SDS011;44258;51.288;12.068;2023-06-19T06:59:21;17.00;;;10.27;;
58470;SDS011;44258;51.288;12.068;2023-06-19T07:02:08;18.20;;;10.23;;
58470;SDS011;44258;51.288;12.068;2023-06-19T07:04:55;15.75;;;10.10;;
58470;SDS011;44258;51.288;12.068;2023-06-19T07:07:43;17.17;;;10.43;;
58470;SDS011;44258;51.288;12.068;2023-06-19T07:10:30;17.65;;;10.57;;
58470;SDS011;44258;51.288;12.068;2023-06-19T07:13:17;19.10;;;10.80;;
58470;SDS011;44258;51.288;12.068;2023-06-19T07:16:05;15.70;;;10.63;;
58470;SDS011;44258;51.288;12.068;2023-06-19T07:18:52;15.52;;;10.13;;
58470;SDS011;44258;51.288;12.068;2023-06-19T07:21:39;17.23;;;10.93;;
58470;SDS011;44258;51.288;12.068;2023-06-19T07:24:27;18.40;;;10.52;;
58470;SDS011;44258;51.288;12.068;2023-06-19T07:27:14;19.73;;;10.85;;
58470;SDS011;44258;51.288;12.068;2023-06-19T07:30:01;17.77;;;10.45;;
58470;SDS011;44258;51.288;12.068;2023-06-19T07:32:49;16.80;;;10.77;;
58470;SDS011;44258;51.288;12.068;2023-06-19T07:35:36;17.15;;;10.35;;
58470;SDS011;44258;51.288;12.068;2023-06-19T07:38:23;16.55;;;10.15;;
58470;SDS011;44258;51.288;12.068;2023-06-19T07:41:10;16.08;;;9.95;;
58470;SDS011;44258;51.288;12.068;2023-06-19T07:44:00;17.55;;;10.10;;
58470;SDS011;44258;51.288;12.068;2023-06-19T07:46:47;17.10;;;9.63;;
58470;SDS011;44258;51.288;12.068;2023-06-19T07:49:35;17.35;;;9.82;;
58470;SDS011;44258;51.288;12.068;2023-06-19T07:52:22;15.75;;;9.75;;
58470;SDS011;44258;51.288;12.068;2023-06-19T07:55:09;16.85;;;10.27;;
58470;SDS011;44258;51.288;12.068;2023-06-19T07:57:56;17.90;;;10.15;;
58470;SDS011;44258;51.288;12.068;2023-06-19T08:00:43;16.88;;;10.18;;
58470;SDS011;44258;51.288;12.068;2023-06-19T08:03:30;15.15;;;9.75;;
58470;SDS011;44258;51.288;12.068;2023-06-19T08:06:18;16.33;;;10.13;;
58470;SDS011;44258;51.288;12.068;2023-06-19T08:09:05;17.17;;;10.48;;
58470;SDS011;44258;51.288;12.068;2023-06-19T08:11:53;14.27;;;9.10;;
58470;SDS011;44258;51.288;12.068;2023-06-19T08:14:40;15.55;;;9.48;;
58470;SDS011;44258;51.288;12.068;2023-06-19T08:17:26;16.00;;;9.60;;
58470;SDS011;44258;51.288;12.068;2023-06-19T08:20:15;13.93;;;8.57;;
58470;SDS011;44258;51.288;12.068;2023-06-19T08:23:03;13.07;;;8.23;;
58470;SDS011;44258;51.288;12.068;2023-06-19T08:25:50;14.85;;;8.57;;
58470;SDS011;44258;51.288;12.068;2023-06-19T08:28:37;14.25;;;7.93;;
58470;SDS011;44258;51.288;12.068;2023-06-19T08:31:25;16.13;;;8.18;;
58470;SDS011;44258;51.288;12.068;2023-06-19T08:34:14;14.10;;;8.25;;
58470;SDS011;44258;51.288;12.068;2023-06-19T08:37:01;13.43;;;7.68;;
58470;SDS011;44258;51.288;12.068;2023-06-19T08:39:49;12.95;;;7.82;;
58470;SDS011;44258;51.288;12.068;2023-06-19T08:42:36;12.98;;;8.23;;
58470;SDS011;44258;51.288;12.068;2023-06-19T08:45:25;12.82;;;7.30;;
58470;SDS011;44258;51.288;12.068;2023-06-19T08:48:13;14.15;;;7.78;;
58470;SDS011;44258;51.288;12.068;2023-06-19T08:51:05;14.45;;;8.35;;
58470;SDS011;44258;51.288;12.068;2023-06-19T08:53:54;14.52;;;8.23;;
58470;SDS011;44258;51.288;12.068;2023-06-19T08:56:43;14.63;;;8.82;;
58470;SDS011;44258;51.288;12.068;2023-06-19T08:59:33;13.00;;;7.82;;
58470;SDS011;44258;51.288;12.068;2023-06-19T09:02:20;12.43;;;7.88;;
58470;SDS011;44258;51.288;12.068;2023-06-19T09:05:11;14.65;;;8.55;;
58470;SDS011;44258;51.288;12.068;2023-06-19T09:08:00;13.57;;;7.80;;
58470;SDS011;44258;51.288;12.068;2023-06-19T09:10:56;14.43;;;8.57;;
58470;SDS011;44258;51.288;12.068;2023-06-19T09:16:36;13.15;;;8.32;;
58470;SDS011;44258;51.288;12.068;2023-06-19T09:19:25;13.07;;;7.95;;
58470;SDS011;44258;51.288;12.068;2023-06-19T09:22:11;14.52;;;7.97;;
58470;SDS011;44258;51.288;12.068;2023-06-19T09:24:59;14.48;;;8.45;;
58470;SDS011;44258;51.288;12.068;2023-06-19T09:27:47;12.98;;;8.10;;
58470;SDS011;44258;51.288;12.068;2023-06-19T09:30:35;13.07;;;8.20;;
58470;SDS011;44258;51.288;12.068;2023-06-19T09:33:22;14.07;;;8.02;;
58470;SDS011;44258;51.288;12.068;2023-06-19T09:36:09;14.25;;;8.43;;
58470;SDS011;44258;51.288;12.068;2023-06-19T09:38:56;13.30;;;8.63;;
58470;SDS011;44258;51.288;12.068;2023-06-19T09:41:45;13.95;;;8.88;;
58470;SDS011;44258;51.288;12.068;2023-06-19T09:44:39;15.02;;;8.73;;
58470;SDS011;44258;51.288;12.068;2023-06-19T09:47:35;12.30;;;7.63;;
58470;SDS011;44258;51.288;12.068;2023-06-19T09:50:23;13.10;;;8.52;;
58470;SDS011;44258;51.288;12.068;2023-06-19T09:53:13;15.00;;;8.73;;
58470;SDS011;44258;51.288;12.068;2023-06-19T09:56:01;17.55;;;8.85;;
58470;SDS011;44258;51.288;12.068;2023-06-19T09:58:48;13.10;;;8.18;;
58470;SDS011;44258;51.288;12.068;2023-06-19T10:01:38;12.57;;;8.23;;
58470;SDS011;44258;51.288;12.068;2023-06-19T10:04:27;14.68;;;9.27;;
58470;SDS011;44258;51.288;12.068;2023-06-19T10:07:15;13.73;;;8.85;;
58470;SDS011;44258;51.288;12.068;2023-06-19T10:10:03;12.88;;;8.82;;
58470;SDS011;44258;51.288;12.068;2023-06-19T10:12:52;13.43;;;8.38;;
58470;SDS011;44258;51.288;12.068;2023-06-19T10:15:42;17.15;;;9.18;;
58470;SDS011;44258;51.288;12.068;2023-06-19T10:18:31;12.50;;;8.52;;
58470;SDS011;44258;51.288;12.068;2023-06-19T10:21:21;17.70;;;8.90;;
58470;SDS011;44258;51.288;12.068;2023-06-19T10:24:13;13.40;;;9.13;;
58470;SDS011;44258;51.288;12.068;2023-06-19T10:27:03;13.10;;;8.60;;
58470;SDS011;44258;51.288;12.068;2023-06-19T10:29:54;12.43;;;8.88;;
58470;SDS011;44258;51.288;12.068;2023-06-19T10:32:43;13.38;;;8.43;;
58470;SDS011;44258;51.288;12.068;2023-06-19T10:35:36;15.02;;;9.02;;
58470;SDS011;44258;51.288;12.068;2023-06-19T10:38:26;13.80;;;8.80;;
58470;SDS011;44258;51.288;12.068;2023-06-19T10:41:14;14.57;;;9.48;;
58470;SDS011;44258;51.288;12.068;2023-06-19T10:44:02;14.48;;;8.93;;
58470;SDS011;44258;51.288;12.068;2023-06-19T10:46:50;12.60;;;8.77;;
58470;SDS011;44258;51.288;12.068;2023-06-19T10:49:39;16.30;;;8.68;;
58470;SDS011;44258;51.288;12.068;2023-06-19T10:52:27;14.07;;;8.43;;
58470;SDS011;44258;51.288;12.068;2023-06-19T10:55:16;12.32;;;8.50;;
58470;SDS011;44258;51.288;12.068;2023-06-19T10:58:03;15.38;;;9.25;;
58470;SDS011;44258;51.288;12.068;2023-06-19T11:00:50;14.00;;;8.82;;
58470;SDS011;44258;51.288;12.068;2023-06-19T11:03:37;13.40;;;8.93;;
58470;SDS011;44258;51.288;12.068;2023-06-19T11:06:24;12.93;;;8.82;;
58470;SDS011;44258;51.288;12.068;2023-06-19T11:09:11;13.95;;;8.70;;
58470;SDS011;44258;51.288;12.068;2023-06-19T11:12:00;13.68;;;8.93;;
58470;SDS011;44258;51.288;12.068;2023-06-19T11:14:47;13.27;;;8.55;;
58470;SDS011;44258;51.288;12.068;2023-06-19T11:17:35;13.70;;;9.82;;
58470;SDS011;44258;51.288;12.068;2023-06-19T11:20:22;12.90;;;8.68;;
58470;SDS011;44258;51.288;12.068;2023-06-19T11:23:10;12.30;;;8.85;;
58470;SDS011;44258;51.288;12.068;2023-06-19T11:26:06;13.32;;;8.88;;
58470;SDS011;44258;51.288;12.068;2023-06-19T11:28:56;13.30;;;9.38;;
58470;SDS011;44258;51.288;12.068;2023-06-19T11:31:42;12.15;;;8.40;;
58470;SDS011;44258;51.288;12.068;2023-06-19T11:34:31;15.55;;;9.00;;
58470;SDS011;44258;51.288;12.068;2023-06-19T11:37:19;13.75;;;9.45;;
58470;SDS011;44258;51.288;12.068;2023-06-19T11:40:06;15.85;;;9.77;;
58470;SDS011;44258;51.288;12.068;2023-06-19T11:43:00;14.52;;;9.00;;
58470;SDS011;44258;51.288;12.068;2023-06-19T11:45:48;14.45;;;9.23;;
58470;SDS011;44258;51.288;12.068;2023-06-19T11:48:37;13.18;;;8.88;;
58470;SDS011;44258;51.288;12.068;2023-06-19T11:51:24;13.70;;;9.52;;
58470;SDS011;44258;51.288;12.068;2023-06-19T11:54:12;13.63;;;8.73;;
58470;SDS011;44258;51.288;12.068;2023-06-19T11:57:00;12.85;;;8.50;;
58470;SDS011;44258;51.288;12.068;2023-06-19T11:59:47;12.23;;;8.32;;
58470;SDS011;44258;51.288;12.068;2023-06-19T12:02:35;12.20;;;8.30;;
58470;SDS011;44258;51.288;12.068;2023-06-19T12:05:22;12.10;;;8.30;;
58470;SDS011;44258;51.288;12.068;2023-06-19T12:08:09;12.60;;;8.85;;
58470;SDS011;44258;51.288;12.068;2023-06-19T12:10:56;12.18;;;7.63;;
58470;SDS011;44258;51.288;12.068;2023-06-19T12:13:43;13.88;;;7.82;;
58470;SDS011;44258;51.288;12.068;2023-06-19T12:16:30;13.90;;;8.10;;
58470;SDS011;44258;51.288;12.068;2023-06-19T12:19:18;11.57;;;8.38;;
58470;SDS011;44258;51.288;12.068;2023-06-19T12:22:05;14.07;;;8.57;;
58470;SDS011;44258;51.288;12.068;2023-06-19T12:24:52;12.32;;;9.02;;
58470;SDS011;44258;51.288;12.068;2023-06-19T12:27:39;13.43;;;9.23;;
58470;SDS011;44258;51.288;12.068;2023-06-19T12:30:26;12.30;;;8.57;;
58470;SDS011;44258;51.288;12.068;2023-06-19T12:33:16;12.43;;;9.10;;
58470;SDS011;44258;51.288;12.068;2023-06-19T12:36:05;12.57;;;8.82;;
58470;SDS011;44258;51.288;12.068;2023-06-19T12:38:54;14.40;;;9.30;;
58470;SDS011;44258;51.288;12.068;2023-06-19T12:41:41;12.18;;;8.00;;
58470;SDS011;44258;51.288;12.068;2023-06-19T12:44:28;13.00;;;8.70;;
58470;SDS011;44258;51.288;12.068;2023-06-19T12:47:15;11.63;;;8.15;;
58470;SDS011;44258;51.288;12.068;2023-06-19T12:50:03;11.48;;;8.55;;
58470;SDS011;44258;51.288;12.068;2023-06-19T12:52:52;12.68;;;8.60;;
58470;SDS011;44258;51.288;12.068;2023-06-19T12:55:39;13.23;;;8.38;;
58470;SDS011;44258;51.288;12.068;2023-06-19T12:58:26;15.40;;;8.68;;
58470;SDS011;44258;51.288;12.068;2023-06-19T13:01:13;13.05;;;7.57;;
58470;SDS011;44258;51.288;12.068;2023-06-19T13:04:00;11.45;;;7.90;;
58470;SDS011;44258;51.288;12.068;2023-06-19T13:06:47;11.35;;;7.05;;
58470;SDS011;44258;51.288;12.068;2023-06-19T13:09:36;12.98;;;7.63;;
58470;SDS011;44258;51.288;12.068;2023-06-19T13:12:23;12.43;;;7.28;;
58470;SDS011;44258;51.288;12.068;2023-06-19T13:15:10;11.65;;;7.70;;
58470;SDS011;44258;51.288;12.068;2023-06-19T13:17:57;11.40;;;7.32;;
58470;SDS011;44258;51.288;12.068;2023-06-19T13:20:45;12.23;;;7.05;;
58470;SDS011;44258;51.288;12.068;2023-06-19T13:23:33;11.85;;;6.88;;
58470;SDS011;44258;51.288;12.068;2023-06-19T13:26:21;10.52;;;7.18;;
58470;SDS011;44258;51.288;12.068;2023-06-19T13:29:08;10.25;;;6.78;;
58470;SDS011;44258;51.288;12.068;2023-06-19T13:31:55;12.15;;;6.80;;
58470;SDS011;44258;51.288;12.068;2023-06-19T13:34:42;10.27;;;6.45;;
58470;SDS011;44258;51.288;12.068;2023-06-19T13:37:29;10.20;;;6.57;;
58470;SDS011;44258;51.288;12.068;2023-06-19T13:40:16;11.25;;;6.78;;
58470;SDS011;44258;51.288;12.068;2023-06-19T13:43:04;11.43;;;7.07;;
58470;SDS011;44258;51.288;12.068;2023-06-19T13:45:52;10.15;;;7.05;;
58470;SDS011;44258;51.288;12.068;2023-06-19T13:48:40;10.23;;;6.88;;
58470;SDS011;44258;51.288;12.068;2023-06-19T13:51:26;11.35;;;6.97;;
58470;SDS011;44258;51.288;12.068;2023-06-19T13:54:14;11.43;;;6.65;;
58470;SDS011;44258;51.288;12.068;2023-06-19T13:57:01;10.32;;;6.70;;
58470;SDS011;44258;51.288;12.068;2023-06-19T13:59:49;11.23;;;7.03;;
58470;SDS011;44258;51.288;12.068;2023-06-19T14:02:36;10.48;;;6.72;;
58470;SDS011;44258;51.288;12.068;2023-06-19T14:05:23;11.77;;;7.13;;
58470;SDS011;44258;51.288;12.068;2023-06-19T14:08:11;9.80;;;6.88;;
58470;SDS011;44258;51.288;12.068;2023-06-19T14:10:58;9.90;;;6.40;;
58470;SDS011;44258;51.288;12.068;2023-06-19T14:13:45;9.30;;;5.97;;
58470;SDS011;44258;51.288;12.068;2023-06-19T14:16:35;12.02;;;5.55;;
58470;SDS011;44258;51.288;12.068;2023-06-19T14:19:22;9.25;;;5.57;;
58470;SDS011;44258;51.288;12.068;2023-06-19T14:22:09;9.80;;;6.15;;
58470;SDS011;44258;51.288;12.068;2023-06-19T14:24:56;9.13;;;5.70;;
58470;SDS011;44258;51.288;12.068;2023-06-19T14:27:45;8.65;;;5.60;;
58470;SDS011;44258;51.288;12.068;2023-06-19T14:30:32;9.93;;;5.18;;
58470;SDS011;44258;51.288;12.068;2023-06-19T14:33:20;9.43;;;5.30;;
58470;SDS011;44258;51.288;12.068;2023-06-19T14:36:08;8.30;;;5.05;;
58470;SDS011;44258;51.288;12.068;2023-06-19T14:38:55;12.10;;;5.35;;
58470;SDS011;44258;51.288;12.068;2023-06-19T14:41:41;9.52;;;5.28;;
58470;SDS011;44258;51.288;12.068;2023-06-19T14:44:28;10.02;;;5.32;;
58470;SDS011;44258;51.288;12.068;2023-06-19T14:47:15;8.93;;;5.07;;
58470;SDS011;44258;51.288;12.068;2023-06-19T14:50:04;10.43;;;5.57;;
58470;SDS011;44258;51.288;12.068;2023-06-19T14:52:52;8.77;;;5.28;;
58470;SDS011;44258;51.288;12.068;2023-06-19T14:55:39;10.10;;;5.47;;
58470;SDS011;44258;51.288;12.068;2023-06-19T14:58:30;8.30;;;5.13;;
58470;SDS011;44258;51.288;12.068;2023-06-19T15:01:17;9.35;;;5.40;;
58470;SDS011;44258;51.288;12.068;2023-06-19T15:04:04;9.70;;;5.18;;
58470;SDS011;44258;51.288;12.068;2023-06-19T15:06:52;10.68;;;5.82;;
58470;SDS011;44258;51.288;12.068;2023-06-19T15:09:39;9.77;;;5.15;;
58470;SDS011;44258;51.288;12.068;2023-06-19T15:12:26;10.65;;;5.35;;
58470;SDS011;44258;51.288;12.068;2023-06-19T15:15:14;8.88;;;5.40;;
58470;SDS011;44258;51.288;12.068;2023-06-19T15:18:00;8.65;;;5.32;;
58470;SDS011;44258;51.288;12.068;2023-06-19T15:20:47;8.30;;;5.00;;
58470;SDS011;44258;51.288;12.068;2023-06-19T15:23:36;8.60;;;5.40;;
58470;SDS011;44258;51.288;12.068;2023-06-19T15:26:22;9.90;;;5.35;;
58470;SDS011;44258;51.288;12.068;2023-06-19T15:29:10;11.23;;;6.25;;
58470;SDS011;44258;51.288;12.068;2023-06-19T15:31:57;8.95;;;5.15;;
58470;SDS011;44258;51.288;12.068;2023-06-19T15:34:44;9.15;;;5.55;;
58470;SDS011;44258;51.288;12.068;2023-06-19T15:37:31;9.43;;;5.85;;
58470;SDS011;44258;51.288;12.068;2023-06-19T15:40:20;8.18;;;5.00;;
58470;SDS011;44258;51.288;12.068;2023-06-19T15:43:06;10.55;;;6.30;;
58470;SDS011;44258;51.288;12.068;2023-06-19T15:45:53;10.02;;;5.32;;
58470;SDS011;44258;51.288;12.068;2023-06-19T15:48:40;8.88;;;5.13;;
58470;SDS011;44258;51.288;12.068;2023-06-19T15:51:29;9.50;;;5.97;;
58470;SDS011;44258;51.288;12.068;2023-06-19T15:54:16;9.55;;;5.55;;
58470;SDS011;44258;51.288;12.068;2023-06-19T15:57:04;9.60;;;5.88;;
58470;SDS011;44258;51.288;12.068;2023-06-19T15:59:51;10.55;;;6.13;;
58470;SDS011;44258;51.288;12.068;2023-06-19T16:02:38;10.00;;;5.90;;
58470;SDS011;44258;51.288;12.068;2023-06-19T16:05:28;11.98;;;6.15;;
58470;SDS011;44258;51.288;12.068;2023-06-19T16:08:15;11.70;;;6.63;;
58470;SDS011;44258;51.288;12.068;2023-06-19T16:11:02;11.10;;;6.63;;
58470;SDS011;44258;51.288;12.068;2023-06-19T16:13:51;10.10;;;6.07;;
58470;SDS011;44258;51.288;12.068;2023-06-19T16:16:38;10.93;;;6.45;;
58470;SDS011;44258;51.288;12.068;2023-06-19T16:19:25;11.88;;;6.55;;
58470;SDS011;44258;51.288;12.068;2023-06-19T16:22:12;9.95;;;5.70;;
58470;SDS011;44258;51.288;12.068;2023-06-19T16:24:59;10.68;;;6.05;;
58470;SDS011;44258;51.288;12.068;2023-06-19T16:27:46;11.35;;;6.55;;
58470;SDS011;44258;51.288;12.068;2023-06-19T16:30:34;11.85;;;6.05;;
58470;SDS011;44258;51.288;12.068;2023-06-19T16:33:21;12.00;;;6.40;;
58470;SDS011;44258;51.288;12.068;2023-06-19T16:36:08;9.88;;;6.25;;
58470;SDS011;44258;51.288;12.068;2023-06-19T16:38:56;10.65;;;6.10;;
58470;SDS011;44258;51.288;12.068;2023-06-19T16:41:44;13.55;;;6.53;;
58470;SDS011;44258;51.288;12.068;2023-06-19T16:44:31;9.70;;;5.90;;
58470;SDS011;44258;51.288;12.068;2023-06-19T16:47:19;11.77;;;6.63;;
58470;SDS011;44258;51.288;12.068;2023-06-19T16:50:06;10.48;;;7.00;;
58470;SDS011;44258;51.288;12.068;2023-06-19T16:52:55;10.88;;;6.43;;
58470;SDS011;44258;51.288;12.068;2023-06-19T16:55:46;12.02;;;6.68;;
58470;SDS011;44258;51.288;12.068;2023-06-19T16:58:33;11.48;;;6.65;;
58470;SDS011;44258;51.288;12.068;2023-06-19T17:01:20;12.10;;;6.68;;
58470;SDS011;44258;51.288;12.068;2023-06-19T17:04:08;13.30;;;7.03;;
58470;SDS011;44258;51.288;12.068;2023-06-19T17:06:55;12.93;;;8.20;;
58470;SDS011;44258;51.288;12.068;2023-06-19T17:09:42;11.45;;;7.88;;
58470;SDS011;44258;51.288;12.068;2023-06-19T17:12:29;12.20;;;8.00;;
58470;SDS011;44258;51.288;12.068;2023-06-19T17:15:18;13.25;;;8.57;;
58470;SDS011;44258;51.288;12.068;2023-06-19T17:18:05;13.55;;;8.20;;
58470;SDS011;44258;51.288;12.068;2023-06-19T17:20:53;11.50;;;7.75;;
58470;SDS011;44258;51.288;12.068;2023-06-19T17:23:41;15.48;;;9.02;;
58470;SDS011;44258;51.288;12.068;2023-06-19T17:26:28;13.07;;;8.80;;
58470;SDS011;44258;51.288;12.068;2023-06-19T17:29:15;15.93;;;10.30;;
58470;SDS011;44258;51.288;12.068;2023-06-19T17:32:02;15.98;;;9.65;;
58470;SDS011;44258;51.288;12.068;2023-06-19T17:34:49;13.00;;;9.20;;
58470;SDS011;44258;51.288;12.068;2023-06-19T17:37:37;17.65;;;8.95;;